WetterOnline ( http://www.wetteronline.de )

Wetter aktuell Hunsrück (in 400m)

Aktuelles Wetter: Deuselbach (483m)

6-stündlich | Neueste Meldungen
Ortszeit Temperatur Wetter
So, 24.06. 14:00 16.5° C bedeckt
So, 24.06. 8:00 11.9° C wolkig
So, 24.06. 2:00 8.1° C wolkig
Sa, 23.06. 20:00 13.6° C bewölkt
Sa, 23.06. 14:00 14.9° C bewölkt
Sa, 23.06. 8:00 8.1° C bewölkt
Sa, 23.06. 2:00 7.4° C fast wolkenlos
Fr, 22.06. 20:00 12.9° C bedeckt
Ortszeit Temperatur Wetter
So, 24.06. 16:00 17.3° C bewölkt
So, 24.06. 15:50 17.3° C bewölkt
So, 24.06. 15:40 17.8° C bewölkt
So, 24.06. 15:30 18.1° C wolkig
So, 24.06. 15:20 18.1° C wolkig
So, 24.06. 15:10 17.9° C bewölkt
So, 24.06. 15:00 17.0° C bewölkt
So, 24.06. 14:30 16.6° C bewölkt
So, 24.06. 14:00 16.5° C bedeckt
So, 24.06. 13:30 16.6° C bewölkt
So, 24.06. 13:00 15.3° C bedeckt
Ortszeit Relative Feuchte Sichtweite
So, 24.06. 14:00 58% 60 km
So, 24.06. 8:00 86% 21 km
So, 24.06. 2:00 94% 22 km
Sa, 23.06. 20:00 68% 55 km
Sa, 23.06. 14:00 62% 35 km
Sa, 23.06. 8:00 88% 22 km
Sa, 23.06. 2:00 90% 29 km
Fr, 22.06. 20:00 63% 65 km
Ortszeit Relative Feuchte Sichtweite
So, 24.06. 16:00 53% 40 km
So, 24.06. 15:50 53% -
So, 24.06. 15:40 52% -
So, 24.06. 15:30 53% 35 km
So, 24.06. 15:20 53% -
So, 24.06. 15:10 52% -
So, 24.06. 15:00 53% 40 km
So, 24.06. 14:30 55% 35 km
So, 24.06. 14:00 58% 60 km
So, 24.06. 13:30 57% 35 km
So, 24.06. 13:00 63% 35 km
Ortszeit Niederschlagsmenge Niederschlagsart
So, 24.06. 14:00 0.0 l/m2 in 6 Std. -
So, 24.06. 8:00 0.1 l/m2 in 12 Std. Regen
So, 24.06. 2:00 0.0 l/m2 in 6 Std. -
Sa, 23.06. 20:00 0.0 l/m2 in 12 Std. -
Sa, 23.06. 14:00 0.0 l/m2 in 6 Std. -
Sa, 23.06. 8:00 0.0 l/m2 in 12 Std. -
Sa, 23.06. 2:00 0.0 l/m2 in 6 Std. -
Fr, 22.06. 20:00 0.0 l/m2 in 12 Std. -
Ortszeit Niederschlagsmenge Niederschlagsart
So, 24.06. 16:00 0.0 l/m2 in 1 Std. -
So, 24.06. 15:50 keine Meldung -
So, 24.06. 15:40 keine Meldung -
So, 24.06. 15:30 0.0 l/m2 in 1 Std. -
So, 24.06. 15:20 keine Meldung -
So, 24.06. 15:10 keine Meldung -
So, 24.06. 15:00 0.0 l/m2 in 1 Std. -
So, 24.06. 14:30 0.0 l/m2 in 1 Std. -
So, 24.06. 14:00 0.0 l/m2 in 1 Std. -
So, 24.06. 13:30 0.0 l/m2 in 1 Std. -
So, 24.06. 13:00 0.0 l/m2 in 1 Std. -
Ortszeit Stärke Spitze Richtung
km/h Bft. km/h Grad Sektor
So, 24.06. 14:00 13 3 22 320° NW
So, 24.06. 8:00 4 1 7 270° W
So, 24.06. 2:00 4 1 14 150° SO
Sa, 23.06. 20:00 9 2 30 340° N
Sa, 23.06. 14:00 17 3 26 310° NW
Sa, 23.06. 8:00 7 2 11 310° NW
Sa, 23.06. 2:00 4 1 22 90° O
Fr, 22.06. 20:00 17 3 43 310° NW
Ortszeit Stärke Spitze Richtung
km/h Bft. km/h Grad Sektor
So, 24.06. 16:00 14 3 25 320° NW
So, 24.06. 15:50 14 3 - 320° NW
So, 24.06. 15:40 19 3 - 330° NW
So, 24.06. 15:30 15 3 24 330° NW
So, 24.06. 15:20 15 3 - 330° NW
So, 24.06. 15:10 14 3 - 320° NW
So, 24.06. 15:00 11 2 22 290° W
So, 24.06. 14:30 13 3 20 310° NW
So, 24.06. 14:00 13 3 22 320° NW
So, 24.06. 13:30 9 2 17 350° N
So, 24.06. 13:00 14 3 22 290° W
Ortszeit Untergrenze Bedeckung Gattung
total tief tief mittel hoch
So, 24.06. 14:00 1020 m 8/8 8/8 - - -
So, 24.06. 8:00 2100 m 7/8 - - - -
So, 24.06. 2:00 3300 m 8/8 1/8 - - -
Sa, 23.06. 20:00 1050 m 8/8 6/8 - - -
Sa, 23.06. 14:00 930 m 8/8 6/8 - - -
Sa, 23.06. 8:00 570 m 7/8 7/8 - - -
Sa, 23.06. 2:00 9000 m 2/8 0/8 - - -
Fr, 22.06. 20:00 1500 m 8/8 8/8 - - -
Ortszeit Bedeckungsgrad in Achtel und Wolkenuntergrenze
So, 24.06. 16:00 7(1320m) 7(1500m)
So, 24.06. 15:50 7(1320m) 7(1500m)
So, 24.06. 15:40 7(1380m)
So, 24.06. 15:30 6(1290m) 6(1500m)
So, 24.06. 15:20 6(1290m) 6(1500m)
So, 24.06. 15:10 7(1230m)
So, 24.06. 15:00 6(1170m) 7(1800m) 7(2700m)
So, 24.06. 14:30 3(1200m) 7(2700m) 7(2700m)
So, 24.06. 14:00 2(1020m) 8(2700m)
So, 24.06. 13:30 7(1230m) 7(6900m)
So, 24.06. 13:00 8(1050m)
Ortszeit Luftdruck NN (hPa) Tendenz (hPa in 3 Std.)
So, 24.06. 14:00 1022 - 0,4
So, 24.06. 8:00 1023 - 0,1
So, 24.06. 2:00 1025 - 0,9
Sa, 23.06. 20:00 1025 - 0,7
Sa, 23.06. 14:00 1026 - 0,3
Sa, 23.06. 8:00 1028 + 0,3
Sa, 23.06. 2:00 1028 0,0
Fr, 22.06. 20:00 1026 + 0,1
Ortszeit Luftdruck NN (hPa) Tendenz (hPa in 3 Std.)
So, 24.06. 16:00 1021 - 0,8
So, 24.06. 15:50 1021 keine Meldung
So, 24.06. 15:40 1021 keine Meldung
So, 24.06. 15:30 1021 - 0,8
So, 24.06. 15:20 1021 keine Meldung
So, 24.06. 15:10 1021 keine Meldung
So, 24.06. 15:00 1021 - 0,8
So, 24.06. 14:30 1022 - 0,5
So, 24.06. 14:00 1022 - 0,4
So, 24.06. 13:30 1022 - 0,2
So, 24.06. 13:00 1022 - 0,1
Ortszeit Schneehöhe (cm)
So, 24.06. 14:00 -
So, 24.06. 8:00 -
So, 24.06. 2:00 -
Sa, 23.06. 20:00 -
Sa, 23.06. 14:00 -
Sa, 23.06. 8:00 -
Sa, 23.06. 2:00 -
Fr, 22.06. 20:00 -
Ortszeit Schneehöhe (cm)
So, 24.06. 16:00 -
So, 24.06. 15:50 -
So, 24.06. 15:40 -
So, 24.06. 15:30 -
So, 24.06. 15:20 -
So, 24.06. 15:10 -
So, 24.06. 15:00 -
So, 24.06. 14:30 -
So, 24.06. 14:00 -
So, 24.06. 13:30 -
So, 24.06. 13:00 -
Link zu dieser Seite / Seite empfehlen

Das Wetter in ...